sensor_id;sensor_type;location;lat;lon;timestamp;P1;P2;P0
74333;PMS5003;62753;40.394;-80.022;2022-12-29T00:01:09;11;9;
74333;PMS5003;62753;40.394;-80.022;2022-12-29T00:03:35;9;9;
74333;PMS5003;62753;40.394;-80.022;2022-12-29T00:06:00;10;7;
74333;PMS5003;62753;40.394;-80.022;2022-12-29T00:08:26;10;9;
74333;PMS5003;62753;40.394;-80.022;2022-12-29T00:10:52;11;11;
74333;PMS5003;62753;40.394;-80.022;2022-12-29T00:13:17;9;9;
74333;PMS5003;62753;40.394;-80.022;2022-12-29T00:15:43;10;9;
74333;PMS5003;62753;40.394;-80.022;2022-12-29T00:18:08;12;11;
74333;PMS5003;62753;40.394;-80.022;2022-12-29T00:20:34;10;9;
74333;PMS5003;62753;40.394;-80.022;2022-12-29T00:22:59;9;8;
74333;PMS5003;62753;40.394;-80.022;2022-12-29T00:25:24;11;11;
74333;PMS5003;62753;40.394;-80.022;2022-12-29T00:27:50;9;8;
74333;PMS5003;62753;40.394;-80.022;2022-12-29T00:30:16;9;9;
74333;PMS5003;62753;40.394;-80.022;2022-12-29T00:32:41;11;10;
74333;PMS5003;62753;40.394;-80.022;2022-12-29T00:35:07;11;9;
74333;PMS5003;62753;40.394;-80.022;2022-12-29T00:37:32;9;9;
74333;PMS5003;62753;40.394;-80.022;2022-12-29T00:39:57;9;8;
74333;PMS5003;62753;40.394;-80.022;2022-12-29T00:42:23;10;9;
74333;PMS5003;62753;40.394;-80.022;2022-12-29T00:44:49;12;11;
74333;PMS5003;62753;40.394;-80.022;2022-12-29T00:47:14;10;9;
74333;PMS5003;62753;40.394;-80.022;2022-12-29T00:49:40;10;9;
74333;PMS5003;62753;40.394;-80.022;2022-12-29T00:52:07;8;8;
74333;PMS5003;62753;40.394;-80.022;2022-12-29T00:54:32;11;10;
74333;PMS5003;62753;40.394;-80.022;2022-12-29T00:56:56;9;8;
74333;PMS5003;62753;40.394;-80.022;2022-12-29T00:59:22;10;10;
74333;PMS5003;62753;40.394;-80.022;2022-12-29T01:01:47;16;11;
74333;PMS5003;62753;40.394;-80.022;2022-12-29T01:04:13;9;9;
74333;PMS5003;62753;40.394;-80.022;2022-12-29T01:06:39;8;8;
74333;PMS5003;62753;40.394;-80.022;2022-12-29T01:09:04;8;8;
74333;PMS5003;62753;40.394;-80.022;2022-12-29T01:11:29;13;10;
74333;PMS5003;62753;40.394;-80.022;2022-12-29T01:13:55;10;9;
74333;PMS5003;62753;40.394;-80.022;2022-12-29T01:16:20;10;10;
74333;PMS5003;62753;40.394;-80.022;2022-12-29T01:18:45;11;10;
74333;PMS5003;62753;40.394;-80.022;2022-12-29T01:21:11;12;11;
74333;PMS5003;62753;40.394;-80.022;2022-12-29T01:23:37;10;9;
74333;PMS5003;62753;40.394;-80.022;2022-12-29T01:28:28;8;8;
74333;PMS5003;62753;40.394;-80.022;2022-12-29T01:30:53;9;8;
74333;PMS5003;62753;40.394;-80.022;2022-12-29T01:33:19;9;9;
74333;PMS5003;62753;40.394;-80.022;2022-12-29T01:35:44;10;8;
74333;PMS5003;62753;40.394;-80.022;2022-12-29T01:38:10;10;9;
74333;PMS5003;62753;40.394;-80.022;2022-12-29T01:43:01;11;10;
74333;PMS5003;62753;40.394;-80.022;2022-12-29T01:45:26;11;10;
74333;PMS5003;62753;40.394;-80.022;2022-12-29T01:47:53;12;11;
74333;PMS5003;62753;40.394;-80.022;2022-12-29T01:50:18;10;10;
74333;PMS5003;62753;40.394;-80.022;2022-12-29T01:52:44;9;9;
74333;PMS5003;62753;40.394;-80.022;2022-12-29T01:55:09;8;8;
74333;PMS5003;62753;40.394;-80.022;2022-12-29T01:57:35;9;9;
74333;PMS5003;62753;40.394;-80.022;2022-12-29T02:00:00;11;10;
74333;PMS5003;62753;40.394;-80.022;2022-12-29T02:02:25;11;10;
74333;PMS5003;62753;40.394;-80.022;2022-12-29T02:04:50;13;12;
74333;PMS5003;62753;40.394;-80.022;2022-12-29T02:07:17;12;10;
74333;PMS5003;62753;40.394;-80.022;2022-12-29T02:09:41;7;6;
74333;PMS5003;62753;40.394;-80.022;2022-12-29T02:12:07;10;9;
74333;PMS5003;62753;40.394;-80.022;2022-12-29T02:14:32;10;10;
74333;PMS5003;62753;40.394;-80.022;2022-12-29T02:17:00;13;10;
74333;PMS5003;62753;40.394;-80.022;2022-12-29T02:21:52;11;11;
74333;PMS5003;62753;40.394;-80.022;2022-12-29T02:26:45;11;8;
74333;PMS5003;62753;40.394;-80.022;2022-12-29T02:29:14;15;12;
74333;PMS5003;62753;40.394;-80.022;2022-12-29T02:31:31;12;11;
74333;PMS5003;62753;40.394;-80.022;2022-12-29T02:33:58;9;9;
74333;PMS5003;62753;40.394;-80.022;2022-12-29T02:36:22;9;9;
74333;PMS5003;62753;40.394;-80.022;2022-12-29T02:38:49;11;10;
74333;PMS5003;62753;40.394;-80.022;2022-12-29T02:41:14;11;11;
74333;PMS5003;62753;40.394;-80.022;2022-12-29T02:43:38;11;10;
74333;PMS5003;62753;40.394;-80.022;2022-12-29T02:46:04;15;14;
74333;PMS5003;62753;40.394;-80.022;2022-12-29T02:48:29;14;12;
74333;PMS5003;62753;40.394;-80.022;2022-12-29T02:50:57;13;13;
74333;PMS5003;62753;40.394;-80.022;2022-12-29T02:53:19;11;10;
74333;PMS5003;62753;40.394;-80.022;2022-12-29T02:55:47;12;11;
74333;PMS5003;62753;40.394;-80.022;2022-12-29T02:58:15;19;14;
74333;PMS5003;62753;40.394;-80.022;2022-12-29T03:00:36;12;11;
74333;PMS5003;62753;40.394;-80.022;2022-12-29T03:03:06;18;16;
74333;PMS5003;62753;40.394;-80.022;2022-12-29T03:05:33;12;10;
74333;PMS5003;62753;40.394;-80.022;2022-12-29T03:07:54;15;14;
74333;PMS5003;62753;40.394;-80.022;2022-12-29T03:10:22;15;12;
74333;PMS5003;62753;40.394;-80.022;2022-12-29T03:12:46;12;11;
74333;PMS5003;62753;40.394;-80.022;2022-12-29T03:15:10;15;12;
74333;PMS5003;62753;40.394;-80.022;2022-12-29T03:17:36;14;11;
74333;PMS5003;62753;40.394;-80.022;2022-12-29T03:20:02;10;10;
74333;PMS5003;62753;40.394;-80.022;2022-12-29T03:22:26;12;11;
74333;PMS5003;62753;40.394;-80.022;2022-12-29T03:24:51;12;11;
74333;PMS5003;62753;40.394;-80.022;2022-12-29T03:27:17;15;11;
74333;PMS5003;62753;40.394;-80.022;2022-12-29T03:29:43;17;12;
74333;PMS5003;62753;40.394;-80.022;2022-12-29T03:32:08;11;11;
74333;PMS5003;62753;40.394;-80.022;2022-12-29T03:34:34;11;11;
74333;PMS5003;62753;40.394;-80.022;2022-12-29T03:37:00;11;11;
74333;PMS5003;62753;40.394;-80.022;2022-12-29T03:39:24;11;9;
74333;PMS5003;62753;40.394;-80.022;2022-12-29T03:41:50;12;11;
74333;PMS5003;62753;40.394;-80.022;2022-12-29T03:44:15;9;9;
74333;PMS5003;62753;40.394;-80.022;2022-12-29T03:46:41;15;14;
74333;PMS5003;62753;40.394;-80.022;2022-12-29T03:49:06;11;10;
74333;PMS5003;62753;40.394;-80.022;2022-12-29T03:51:32;11;11;
74333;PMS5003;62753;40.394;-80.022;2022-12-29T03:53:57;9;9;
74333;PMS5003;62753;40.394;-80.022;2022-12-29T03:56:23;11;11;
74333;PMS5003;62753;40.394;-80.022;2022-12-29T03:58:49;15;12;
74333;PMS5003;62753;40.394;-80.022;2022-12-29T04:01:14;15;11;
74333;PMS5003;62753;40.394;-80.022;2022-12-29T04:03:40;15;12;
74333;PMS5003;62753;40.394;-80.022;2022-12-29T04:06:05;20;15;
74333;PMS5003;62753;40.394;-80.022;2022-12-29T04:08:31;14;11;
74333;PMS5003;62753;40.394;-80.022;2022-12-29T04:10:56;13;11;
74333;PMS5003;62753;40.394;-80.022;2022-12-29T04:13:22;14;13;
74333;PMS5003;62753;40.394;-80.022;2022-12-29T04:15:47;19;11;
74333;PMS5003;62753;40.394;-80.022;2022-12-29T04:18:13;16;14;
74333;PMS5003;62753;40.394;-80.022;2022-12-29T04:20:38;14;14;
74333;PMS5003;62753;40.394;-80.022;2022-12-29T04:23:04;14;14;
74333;PMS5003;62753;40.394;-80.022;2022-12-29T04:25:30;11;10;
74333;PMS5003;62753;40.394;-80.022;2022-12-29T04:27:54;14;12;
74333;PMS5003;62753;40.394;-80.022;2022-12-29T04:30:20;14;12;
74333;PMS5003;62753;40.394;-80.022;2022-12-29T04:32:45;15;12;
74333;PMS5003;62753;40.394;-80.022;2022-12-29T04:35:11;9;8;
74333;PMS5003;62753;40.394;-80.022;2022-12-29T04:37:37;12;11;
74333;PMS5003;62753;40.394;-80.022;2022-12-29T04:40:02;10;10;
74333;PMS5003;62753;40.394;-80.022;2022-12-29T04:42:27;10;9;
74333;PMS5003;62753;40.394;-80.022;2022-12-29T04:44:53;10;9;
74333;PMS5003;62753;40.394;-80.022;2022-12-29T04:47:18;14;11;
74333;PMS5003;62753;40.394;-80.022;2022-12-29T04:49:44;15;11;
74333;PMS5003;62753;40.394;-80.022;2022-12-29T04:52:09;9;9;
74333;PMS5003;62753;40.394;-80.022;2022-12-29T04:54:35;14;12;
74333;PMS5003;62753;40.394;-80.022;2022-12-29T04:57:00;14;11;
74333;PMS5003;62753;40.394;-80.022;2022-12-29T04:59:26;15;11;
74333;PMS5003;62753;40.394;-80.022;2022-12-29T05:01:52;9;9;
74333;PMS5003;62753;40.394;-80.022;2022-12-29T05:04:17;10;10;
74333;PMS5003;62753;40.394;-80.022;2022-12-29T05:06:43;13;13;
74333;PMS5003;62753;40.394;-80.022;2022-12-29T05:09:08;12;12;
74333;PMS5003;62753;40.394;-80.022;2022-12-29T05:11:34;10;9;
74333;PMS5003;62753;40.394;-80.022;2022-12-29T05:13:59;9;9;
74333;PMS5003;62753;40.394;-80.022;2022-12-29T05:16:24;10;9;
74333;PMS5003;62753;40.394;-80.022;2022-12-29T05:18:50;8;7;
74333;PMS5003;62753;40.394;-80.022;2022-12-29T05:21:16;10;10;
74333;PMS5003;62753;40.394;-80.022;2022-12-29T05:23:41;14;13;
74333;PMS5003;62753;40.394;-80.022;2022-12-29T05:26:07;10;9;
74333;PMS5003;62753;40.394;-80.022;2022-12-29T05:28:32;10;10;
74333;PMS5003;62753;40.394;-80.022;2022-12-29T05:30:58;11;10;
74333;PMS5003;62753;40.394;-80.022;2022-12-29T05:33:23;7;7;
74333;PMS5003;62753;40.394;-80.022;2022-12-29T05:35:49;10;10;
74333;PMS5003;62753;40.394;-80.022;2022-12-29T05:38:14;10;10;
74333;PMS5003;62753;40.394;-80.022;2022-12-29T05:40:40;14;12;
74333;PMS5003;62753;40.394;-80.022;2022-12-29T05:43:06;13;13;
74333;PMS5003;62753;40.394;-80.022;2022-12-29T05:45:31;12;12;
74333;PMS5003;62753;40.394;-80.022;2022-12-29T05:47:57;12;12;
74333;PMS5003;62753;40.394;-80.022;2022-12-29T05:50:22;13;12;
74333;PMS5003;62753;40.394;-80.022;2022-12-29T05:52:48;12;10;
74333;PMS5003;62753;40.394;-80.022;2022-12-29T05:55:13;14;13;
74333;PMS5003;62753;40.394;-80.022;2022-12-29T05:57:39;15;15;
74333;PMS5003;62753;40.394;-80.022;2022-12-29T06:00:05;12;10;
74333;PMS5003;62753;40.394;-80.022;2022-12-29T06:02:30;15;9;
74333;PMS5003;62753;40.394;-80.022;2022-12-29T06:04:55;11;10;
74333;PMS5003;62753;40.394;-80.022;2022-12-29T06:07:21;10;10;
74333;PMS5003;62753;40.394;-80.022;2022-12-29T06:09:47;9;8;
74333;PMS5003;62753;40.394;-80.022;2022-12-29T06:12:12;9;8;
74333;PMS5003;62753;40.394;-80.022;2022-12-29T06:14:37;10;9;
74333;PMS5003;62753;40.394;-80.022;2022-12-29T06:17:03;8;8;
74333;PMS5003;62753;40.394;-80.022;2022-12-29T06:19:28;8;8;
74333;PMS5003;62753;40.394;-80.022;2022-12-29T06:21:54;9;8;
74333;PMS5003;62753;40.394;-80.022;2022-12-29T06:24:20;8;8;
74333;PMS5003;62753;40.394;-80.022;2022-12-29T06:26:45;8;8;
74333;PMS5003;62753;40.394;-80.022;2022-12-29T06:29:11;9;9;
74333;PMS5003;62753;40.394;-80.022;2022-12-29T06:31:36;10;9;
74333;PMS5003;62753;40.394;-80.022;2022-12-29T06:34:02;11;8;
74333;PMS5003;62753;40.394;-80.022;2022-12-29T06:36:27;7;7;
74333;PMS5003;62753;40.394;-80.022;2022-12-29T06:38:52;10;8;
74333;PMS5003;62753;40.394;-80.022;2022-12-29T06:41:18;11;9;
74333;PMS5003;62753;40.394;-80.022;2022-12-29T06:43:43;9;7;
74333;PMS5003;62753;40.394;-80.022;2022-12-29T06:46:09;9;8;
74333;PMS5003;62753;40.394;-80.022;2022-12-29T06:48:35;8;8;
74333;PMS5003;62753;40.394;-80.022;2022-12-29T06:51:00;8;7;
74333;PMS5003;62753;40.394;-80.022;2022-12-29T06:53:26;7;7;
74333;PMS5003;62753;40.394;-80.022;2022-12-29T06:55:51;7;7;
74333;PMS5003;62753;40.394;-80.022;2022-12-29T06:58:17;8;7;
74333;PMS5003;62753;40.394;-80.022;2022-12-29T07:00:43;10;9;
74333;PMS5003;62753;40.394;-80.022;2022-12-29T07:03:08;7;7;
74333;PMS5003;62753;40.394;-80.022;2022-12-29T07:05:34;8;8;
74333;PMS5003;62753;40.394;-80.022;2022-12-29T07:07:59;9;9;
74333;PMS5003;62753;40.394;-80.022;2022-12-29T07:10:25;9;8;
74333;PMS5003;62753;40.394;-80.022;2022-12-29T07:12:50;9;8;
74333;PMS5003;62753;40.394;-80.022;2022-12-29T07:15:16;9;8;
74333;PMS5003;62753;40.394;-80.022;2022-12-29T07:17:41;8;7;
74333;PMS5003;62753;40.394;-80.022;2022-12-29T07:20:07;8;7;
74333;PMS5003;62753;40.394;-80.022;2022-12-29T07:22:32;8;6;
74333;PMS5003;62753;40.394;-80.022;2022-12-29T07:24:58;8;7;
74333;PMS5003;62753;40.394;-80.022;2022-12-29T07:27:23;7;7;
74333;PMS5003;62753;40.394;-80.022;2022-12-29T07:29:49;5;4;
74333;PMS5003;62753;40.394;-80.022;2022-12-29T07:32:14;6;6;
74333;PMS5003;62753;40.394;-80.022;2022-12-29T07:34:40;6;6;
74333;PMS5003;62753;40.394;-80.022;2022-12-29T07:37:06;7;5;
74333;PMS5003;62753;40.394;-80.022;2022-12-29T07:39:31;8;6;
74333;PMS5003;62753;40.394;-80.022;2022-12-29T07:41:56;7;7;
74333;PMS5003;62753;40.394;-80.022;2022-12-29T07:44:21;13;9;
74333;PMS5003;62753;40.394;-80.022;2022-12-29T07:46:47;8;7;
74333;PMS5003;62753;40.394;-80.022;2022-12-29T07:49:12;8;8;
74333;PMS5003;62753;40.394;-80.022;2022-12-29T07:51:38;7;5;
74333;PMS5003;62753;40.394;-80.022;2022-12-29T07:54:04;8;8;
74333;PMS5003;62753;40.394;-80.022;2022-12-29T07:56:29;7;6;
74333;PMS5003;62753;40.394;-80.022;2022-12-29T07:58:55;7;7;
74333;PMS5003;62753;40.394;-80.022;2022-12-29T08:01:20;6;5;
74333;PMS5003;62753;40.394;-80.022;2022-12-29T08:03:46;8;8;
74333;PMS5003;62753;40.394;-80.022;2022-12-29T08:06:11;7;6;
74333;PMS5003;62753;40.394;-80.022;2022-12-29T08:08:37;7;7;
74333;PMS5003;62753;40.394;-80.022;2022-12-29T08:11:02;6;6;
74333;PMS5003;62753;40.394;-80.022;2022-12-29T08:13:28;8;7;
74333;PMS5003;62753;40.394;-80.022;2022-12-29T08:15:53;7;7;
74333;PMS5003;62753;40.394;-80.022;2022-12-29T08:18:19;8;7;
74333;PMS5003;62753;40.394;-80.022;2022-12-29T08:20:45;8;7;
74333;PMS5003;62753;40.394;-80.022;2022-12-29T08:23:10;9;7;
74333;PMS5003;62753;40.394;-80.022;2022-12-29T08:25:36;8;7;
74333;PMS5003;62753;40.394;-80.022;2022-12-29T08:28:01;7;6;
74333;PMS5003;62753;40.394;-80.022;2022-12-29T08:30:27;7;6;
74333;PMS5003;62753;40.394;-80.022;2022-12-29T08:32:52;7;6;
74333;PMS5003;62753;40.394;-80.022;2022-12-29T08:35:18;8;7;
74333;PMS5003;62753;40.394;-80.022;2022-12-29T08:37:43;8;6;
74333;PMS5003;62753;40.394;-80.022;2022-12-29T08:40:09;6;6;
74333;PMS5003;62753;40.394;-80.022;2022-12-29T08:42:34;8;6;
74333;PMS5003;62753;40.394;-80.022;2022-12-29T08:45:00;7;7;
74333;PMS5003;62753;40.394;-80.022;2022-12-29T08:47:25;6;5;
74333;PMS5003;62753;40.394;-80.022;2022-12-29T08:49:51;6;5;
74333;PMS5003;62753;40.394;-80.022;2022-12-29T08:52:17;7;6;
74333;PMS5003;62753;40.394;-80.022;2022-12-29T08:54:42;9;8;
74333;PMS5003;62753;40.394;-80.022;2022-12-29T08:57:08;7;6;
74333;PMS5003;62753;40.394;-80.022;2022-12-29T08:59:33;7;7;
74333;PMS5003;62753;40.394;-80.022;2022-12-29T09:01:59;9;7;
74333;PMS5003;62753;40.394;-80.022;2022-12-29T09:04:24;8;7;
74333;PMS5003;62753;40.394;-80.022;2022-12-29T09:06:50;8;7;
74333;PMS5003;62753;40.394;-80.022;2022-12-29T09:09:15;7;7;
74333;PMS5003;62753;40.394;-80.022;2022-12-29T09:11:41;6;6;
74333;PMS5003;62753;40.394;-80.022;2022-12-29T09:14:07;6;6;
74333;PMS5003;62753;40.394;-80.022;2022-12-29T09:16:32;8;8;
74333;PMS5003;62753;40.394;-80.022;2022-12-29T09:18:58;8;6;
74333;PMS5003;62753;40.394;-80.022;2022-12-29T09:21:23;6;5;
74333;PMS5003;62753;40.394;-80.022;2022-12-29T09:23:49;10;8;
74333;PMS5003;62753;40.394;-80.022;2022-12-29T09:26:14;7;6;
74333;PMS5003;62753;40.394;-80.022;2022-12-29T09:28:39;7;6;
74333;PMS5003;62753;40.394;-80.022;2022-12-29T09:31:05;9;9;
74333;PMS5003;62753;40.394;-80.022;2022-12-29T09:33:31;7;7;
74333;PMS5003;62753;40.394;-80.022;2022-12-29T09:35:57;7;6;
74333;PMS5003;62753;40.394;-80.022;2022-12-29T09:38:22;9;8;
74333;PMS5003;62753;40.394;-80.022;2022-12-29T09:40:49;7;7;
74333;PMS5003;62753;40.394;-80.022;2022-12-29T09:43:17;10;9;
74333;PMS5003;62753;40.394;-80.022;2022-12-29T09:45:40;7;7;
74333;PMS5003;62753;40.394;-80.022;2022-12-29T09:48:04;8;7;
74333;PMS5003;62753;40.394;-80.022;2022-12-29T09:50:30;8;7;
74333;PMS5003;62753;40.394;-80.022;2022-12-29T09:52:58;8;7;
74333;PMS5003;62753;40.394;-80.022;2022-12-29T09:55:21;8;8;
74333;PMS5003;62753;40.394;-80.022;2022-12-29T09:57:47;13;9;
74333;PMS5003;62753;40.394;-80.022;2022-12-29T10:00:12;9;8;
74333;PMS5003;62753;40.394;-80.022;2022-12-29T10:02:38;6;6;
74333;PMS5003;62753;40.394;-80.022;2022-12-29T10:05:03;9;8;
74333;PMS5003;62753;40.394;-80.022;2022-12-29T10:07:33;9;7;
74333;PMS5003;62753;40.394;-80.022;2022-12-29T10:09:56;7;6;
74333;PMS5003;62753;40.394;-80.022;2022-12-29T10:12:22;7;7;
74333;PMS5003;62753;40.394;-80.022;2022-12-29T10:14:49;9;7;
74333;PMS5003;62753;40.394;-80.022;2022-12-29T10:17:12;11;8;
74333;PMS5003;62753;40.394;-80.022;2022-12-29T10:19:43;8;7;
74333;PMS5003;62753;40.394;-80.022;2022-12-29T10:22:06;7;6;
74333;PMS5003;62753;40.394;-80.022;2022-12-29T10:24:27;5;5;
74333;PMS5003;62753;40.394;-80.022;2022-12-29T10:26:52;8;6;
74333;PMS5003;62753;40.394;-80.022;2022-12-29T10:29:19;8;7;
74333;PMS5003;62753;40.394;-80.022;2022-12-29T10:31:44;6;5;
74333;PMS5003;62753;40.394;-80.022;2022-12-29T10:34:18;6;6;
74333;PMS5003;62753;40.394;-80.022;2022-12-29T10:36:35;7;7;
74333;PMS5003;62753;40.394;-80.022;2022-12-29T10:39:02;6;6;
74333;PMS5003;62753;40.394;-80.022;2022-12-29T10:41:27;7;7;
74333;PMS5003;62753;40.394;-80.022;2022-12-29T10:43:52;6;6;
74333;PMS5003;62753;40.394;-80.022;2022-12-29T10:46:17;8;7;
74333;PMS5003;62753;40.394;-80.022;2022-12-29T10:48:42;5;5;
74333;PMS5003;62753;40.394;-80.022;2022-12-29T10:51:08;5;5;
74333;PMS5003;62753;40.394;-80.022;2022-12-29T10:53:35;7;6;
74333;PMS5003;62753;40.394;-80.022;2022-12-29T10:55:59;6;5;
74333;PMS5003;62753;40.394;-80.022;2022-12-29T10:58:24;8;6;
74333;PMS5003;62753;40.394;-80.022;2022-12-29T11:00:51;5;4;
74333;PMS5003;62753;40.394;-80.022;2022-12-29T11:03:23;7;6;
74333;PMS5003;62753;40.394;-80.022;2022-12-29T11:05:42;5;4;
74333;PMS5003;62753;40.394;-80.022;2022-12-29T11:08:09;6;5;
74333;PMS5003;62753;40.394;-80.022;2022-12-29T11:10:35;8;7;
74333;PMS5003;62753;40.394;-80.022;2022-12-29T11:12:58;7;7;
74333;PMS5003;62753;40.394;-80.022;2022-12-29T11:15:23;7;6;
74333;PMS5003;62753;40.394;-80.022;2022-12-29T11:17:50;6;5;
74333;PMS5003;62753;40.394;-80.022;2022-12-29T11:22:40;8;6;
74333;PMS5003;62753;40.394;-80.022;2022-12-29T11:25:06;7;7;
74333;PMS5003;62753;40.394;-80.022;2022-12-29T11:27:31;7;6;
74333;PMS5003;62753;40.394;-80.022;2022-12-29T11:29:56;5;5;
74333;PMS5003;62753;40.394;-80.022;2022-12-29T11:32:23;7;5;
74333;PMS5003;62753;40.394;-80.022;2022-12-29T11:34:47;5;5;
74333;PMS5003;62753;40.394;-80.022;2022-12-29T11:37:13;5;5;
74333;PMS5003;62753;40.394;-80.022;2022-12-29T11:39:40;6;5;
74333;PMS5003;62753;40.394;-80.022;2022-12-29T11:42:05;6;6;
74333;PMS5003;62753;40.394;-80.022;2022-12-29T11:44:32;6;6;
74333;PMS5003;62753;40.394;-80.022;2022-12-29T11:46:55;6;5;
74333;PMS5003;62753;40.394;-80.022;2022-12-29T11:49:22;7;6;
74333;PMS5003;62753;40.394;-80.022;2022-12-29T11:51:47;8;7;
74333;PMS5003;62753;40.394;-80.022;2022-12-29T11:54:13;7;5;
74333;PMS5003;62753;40.394;-80.022;2022-12-29T11:56:38;5;5;
74333;PMS5003;62753;40.394;-80.022;2022-12-29T12:01:30;6;6;
74333;PMS5003;62753;40.394;-80.022;2022-12-29T12:03:56;7;6;
74333;PMS5003;62753;40.394;-80.022;2022-12-29T12:06:19;9;8;
74333;PMS5003;62753;40.394;-80.022;2022-12-29T12:08:46;7;6;
74333;PMS5003;62753;40.394;-80.022;2022-12-29T12:11:11;7;6;
74333;PMS5003;62753;40.394;-80.022;2022-12-29T12:13:37;6;6;
74333;PMS5003;62753;40.394;-80.022;2022-12-29T12:16:04;8;6;
74333;PMS5003;62753;40.394;-80.022;2022-12-29T12:18:31;10;8;
74333;PMS5003;62753;40.394;-80.022;2022-12-29T12:20:54;8;7;
74333;PMS5003;62753;40.394;-80.022;2022-12-29T12:23:22;8;8;
74333;PMS5003;62753;40.394;-80.022;2022-12-29T12:25:47;7;7;
74333;PMS5003;62753;40.394;-80.022;2022-12-29T12:28:10;7;6;
74333;PMS5003;62753;40.394;-80.022;2022-12-29T12:30:36;7;6;
74333;PMS5003;62753;40.394;-80.022;2022-12-29T12:33:02;8;8;
74333;PMS5003;62753;40.394;-80.022;2022-12-29T12:35:28;8;7;
74333;PMS5003;62753;40.394;-80.022;2022-12-29T12:37:56;7;7;
74333;PMS5003;62753;40.394;-80.022;2022-12-29T12:40:25;6;6;
74333;PMS5003;62753;40.394;-80.022;2022-12-29T12:42:44;8;7;
74333;PMS5003;62753;40.394;-80.022;2022-12-29T12:47:41;7;7;
74333;PMS5003;62753;40.394;-80.022;2022-12-29T12:50:02;7;7;
74333;PMS5003;62753;40.394;-80.022;2022-12-29T12:52:27;13;10;
74333;PMS5003;62753;40.394;-80.022;2022-12-29T12:54:55;9;9;
74333;PMS5003;62753;40.394;-80.022;2022-12-29T12:57:17;9;9;
74333;PMS5003;62753;40.394;-80.022;2022-12-29T12:59:45;6;6;
74333;PMS5003;62753;40.394;-80.022;2022-12-29T13:02:11;7;6;
74333;PMS5003;62753;40.394;-80.022;2022-12-29T13:04:37;8;8;
74333;PMS5003;62753;40.394;-80.022;2022-12-29T13:07:00;7;7;
74333;PMS5003;62753;40.394;-80.022;2022-12-29T13:09:30;8;7;
74333;PMS5003;62753;40.394;-80.022;2022-12-29T13:11:53;8;7;
74333;PMS5003;62753;40.394;-80.022;2022-12-29T13:14:18;8;7;
74333;PMS5003;62753;40.394;-80.022;2022-12-29T13:16:41;7;7;
74333;PMS5003;62753;40.394;-80.022;2022-12-29T13:19:08;7;7;
74333;PMS5003;62753;40.394;-80.022;2022-12-29T13:21:34;8;7;
74333;PMS5003;62753;40.394;-80.022;2022-12-29T13:23:58;7;6;
74333;PMS5003;62753;40.394;-80.022;2022-12-29T13:26:23;9;8;
74333;PMS5003;62753;40.394;-80.022;2022-12-29T13:28:53;10;7;
74333;PMS5003;62753;40.394;-80.022;2022-12-29T13:31:15;7;7;
74333;PMS5003;62753;40.394;-80.022;2022-12-29T13:33:40;7;7;
74333;PMS5003;62753;40.394;-80.022;2022-12-29T13:36:05;5;5;
74333;PMS5003;62753;40.394;-80.022;2022-12-29T13:38:32;7;5;
74333;PMS5003;62753;40.394;-80.022;2022-12-29T13:40:56;6;6;
74333;PMS5003;62753;40.394;-80.022;2022-12-29T13:43:21;8;8;
74333;PMS5003;62753;40.394;-80.022;2022-12-29T13:45:55;7;7;
74333;PMS5003;62753;40.394;-80.022;2022-12-29T13:48:13;8;7;
74333;PMS5003;62753;40.394;-80.022;2022-12-29T13:50:38;6;6;
74333;PMS5003;62753;40.394;-80.022;2022-12-29T13:53:03;9;8;
74333;PMS5003;62753;40.394;-80.022;2022-12-29T13:55:29;7;7;
74333;PMS5003;62753;40.394;-80.022;2022-12-29T13:57:55;7;7;
74333;PMS5003;62753;40.394;-80.022;2022-12-29T14:00:19;7;6;
74333;PMS5003;62753;40.394;-80.022;2022-12-29T14:02:47;5;5;
74333;PMS5003;62753;40.394;-80.022;2022-12-29T14:07:36;7;6;
74333;PMS5003;62753;40.394;-80.022;2022-12-29T14:10:00;7;7;
74333;PMS5003;62753;40.394;-80.022;2022-12-29T14:12:29;9;8;
74333;PMS5003;62753;40.394;-80.022;2022-12-29T14:14:51;7;7;
74333;PMS5003;62753;40.394;-80.022;2022-12-29T14:17:18;6;6;
74333;PMS5003;62753;40.394;-80.022;2022-12-29T14:19:42;9;8;
74333;PMS5003;62753;40.394;-80.022;2022-12-29T14:22:07;6;6;
74333;PMS5003;62753;40.394;-80.022;2022-12-29T14:24:39;7;7;
74333;PMS5003;62753;40.394;-80.022;2022-12-29T14:26:58;7;6;
74333;PMS5003;62753;40.394;-80.022;2022-12-29T14:31:50;5;5;
74333;PMS5003;62753;40.394;-80.022;2022-12-29T14:36:40;9;8;
74333;PMS5003;62753;40.394;-80.022;2022-12-29T14:39:26;7;7;
74333;PMS5003;62753;40.394;-80.022;2022-12-29T14:41:32;7;7;
74333;PMS5003;62753;40.394;-80.022;2022-12-29T14:43:59;7;6;
74333;PMS5003;62753;40.394;-80.022;2022-12-29T14:46:22;7;6;
74333;PMS5003;62753;40.394;-80.022;2022-12-29T14:48:47;8;8;
74333;PMS5003;62753;40.394;-80.022;2022-12-29T14:51:18;8;7;
74333;PMS5003;62753;40.394;-80.022;2022-12-29T14:53:41;7;7;
74333;PMS5003;62753;40.394;-80.022;2022-12-29T14:56:03;7;7;
74333;PMS5003;62753;40.394;-80.022;2022-12-29T14:58:28;6;6;
74333;PMS5003;62753;40.394;-80.022;2022-12-29T15:00:53;7;7;
74333;PMS5003;62753;40.394;-80.022;2022-12-29T15:03:20;11;8;
74333;PMS5003;62753;40.394;-80.022;2022-12-29T15:05:45;8;7;
74333;PMS5003;62753;40.394;-80.022;2022-12-29T15:08:10;6;6;
74333;PMS5003;62753;40.394;-80.022;2022-12-29T15:10:37;6;6;
74333;PMS5003;62753;40.394;-80.022;2022-12-29T15:13:03;7;6;
74333;PMS5003;62753;40.394;-80.022;2022-12-29T15:15:26;8;8;
74333;PMS5003;62753;40.394;-80.022;2022-12-29T15:17:51;7;6;
74333;PMS5003;62753;40.394;-80.022;2022-12-29T15:20:21;7;7;
74333;PMS5003;62753;40.394;-80.022;2022-12-29T15:22:42;6;6;
74333;PMS5003;62753;40.394;-80.022;2022-12-29T15:27:32;7;7;
74333;PMS5003;62753;40.394;-80.022;2022-12-29T15:29:58;7;7;
74333;PMS5003;62753;40.394;-80.022;2022-12-29T15:32:24;8;7;
74333;PMS5003;62753;40.394;-80.022;2022-12-29T15:34:49;8;7;
74333;PMS5003;62753;40.394;-80.022;2022-12-29T15:37:17;8;7;
74333;PMS5003;62753;40.394;-80.022;2022-12-29T15:39:39;6;5;
74333;PMS5003;62753;40.394;-80.022;2022-12-29T15:42:05;6;6;
74333;PMS5003;62753;40.394;-80.022;2022-12-29T15:44:31;7;7;
74333;PMS5003;62753;40.394;-80.022;2022-12-29T15:46:55;6;6;
74333;PMS5003;62753;40.394;-80.022;2022-12-29T15:49:20;6;6;
74333;PMS5003;62753;40.394;-80.022;2022-12-29T15:51:46;6;6;
74333;PMS5003;62753;40.394;-80.022;2022-12-29T15:54:14;5;4;
74333;PMS5003;62753;40.394;-80.022;2022-12-29T15:56:36;6;6;
74333;PMS5003;62753;40.394;-80.022;2022-12-29T15:59:01;9;6;
74333;PMS5003;62753;40.394;-80.022;2022-12-29T16:01:27;7;7;
74333;PMS5003;62753;40.394;-80.022;2022-12-29T16:03:52;7;6;
74333;PMS5003;62753;40.394;-80.022;2022-12-29T16:06:25;5;5;
74333;PMS5003;62753;40.394;-80.022;2022-12-29T16:08:43;7;6;
74333;PMS5003;62753;40.394;-80.022;2022-12-29T16:11:20;7;6;
74333;PMS5003;62753;40.394;-80.022;2022-12-29T16:13:34;7;7;
74333;PMS5003;62753;40.394;-80.022;2022-12-29T16:16:00;6;5;
74333;PMS5003;62753;40.394;-80.022;2022-12-29T16:18:24;6;6;
74333;PMS5003;62753;40.394;-80.022;2022-12-29T16:20:49;7;7;
74333;PMS5003;62753;40.394;-80.022;2022-12-29T16:23:16;6;5;